Time;durP1;ratioP1;P1;durP2;ratioP2;P2;SDS_P1;SDS_P2;PMS_P1;PMS_P2;Temp;Humidity;BMP_temperature;BMP_pressure;BME280_temperature;BME280_humidity;BME280_pressure;Samples;Min_cycle;Max_cycle;Signal;HPM_P1;HPM_P2
2021/09/01 00:01:01;;;;;;;10.20;5.00;;;;;;;24.83;60.62;100789.34;5043093;28;20500;-69
2021/09/01 00:03:29;;;;;;;10.05;5.60;;;;;;;24.94;60.30;100780.84;5053153;28;20128;-69
2021/09/01 00:05:56;;;;;;;10.07;5.18;;;;;;;24.93;60.21;100787.19;5048744;28;20385;-69
2021/09/01 00:08:23;;;;;;;9.55;4.78;;;;;;;24.86;60.44;100788.38;5052535;28;20695;-70
2021/09/01 00:10:51;;;;;;;9.98;5.43;;;;;;;24.86;60.02;100770.34;5039455;28;20041;-69
2021/09/01 00:13:23;;;;;;;12.82;5.38;;;;;;;24.92;60.08;100778.19;5052655;28;20059;-69
2021/09/01 00:15:52;;;;;;;10.07;5.28;;;;;;;24.84;60.29;100780.31;5052504;28;20045;-69
2021/09/01 00:18:20;;;;;;;9.05;4.55;;;;;;;24.71;60.66;100778.19;5044674;28;20981;-69
2021/09/01 00:20:48;;;;;;;11.73;4.97;;;;;;;24.73;60.66;100779.91;5050789;28;20385;-69
2021/09/01 00:23:16;;;;;;;16.45;4.88;;;;;;;24.77;60.64;100776.13;5051154;28;20520;-69
2021/09/01 00:25:43;;;;;;;13.38;5.38;;;;;;;24.88;60.63;100772.94;5040172;28;20049;-69
2021/09/01 00:28:11;;;;;;;9.63;5.22;;;;;;;24.92;60.11;100775.50;5050365;28;20049;-70
2021/09/01 00:30:41;;;;;;;10.40;5.00;;;;;;;24.91;60.22;100770.16;5035707;28;20459;-69
2021/09/01 00:33:12;;;;;;;11.68;4.50;;;;;;;24.77;60.35;100761.72;5050549;28;20049;-69
2021/09/01 00:35:42;;;;;;;9.82;4.75;;;;;;;24.73;60.54;100762.81;5044127;28;20079;-69
2021/09/01 00:38:11;;;;;;;7.78;4.40;;;;;;;24.59;61.06;100766.09;5050348;28;20415;-69
2021/09/01 00:40:43;;;;;;;9.82;4.50;;;;;;;24.55;61.00;100772.56;5052138;28;20408;-69
2021/09/01 00:43:11;;;;;;;9.35;4.97;;;;;;;24.54;60.93;100773.53;5051182;28;20039;-69
2021/09/01 00:45:46;;;;;;;8.00;4.97;;;;;;;24.53;61.04;100769.94;5051919;28;20059;-69
2021/09/01 00:48:13;;;;;;;;;;;;;;;24.51;60.90;100762.84;5046260;28;20044;-70
2021/09/01 00:50:43;;;;;;;10.27;5.45;;;;;;;24.53;60.70;100780.75;5046078;28;19921;-69
2021/09/01 00:53:15;;;;;;;8.73;4.45;;;;;;;24.49;60.93;100775.50;5050902;28;20128;-70
2021/09/01 00:55:45;;;;;;;8.02;4.93;;;;;;;24.46;61.09;100775.66;5044842;28;20049;-70
2021/09/01 00:58:13;;;;;;;14.32;5.25;;;;;;;24.49;60.85;100780.91;5054536;28;20048;-69
2021/09/01 01:01:00;;;;;;;12.45;4.85;;;;;;;24.42;61.15;100780.28;5051075;28;20044;-70
2021/09/01 01:03:28;;;;;;;13.88;5.30;;;;;;;24.43;61.32;100781.16;5051694;28;20119;-69
2021/09/01 01:05:56;;;;;;;8.57;4.85;;;;;;;24.42;61.13;100783.00;5051794;28;20048;-70
2021/09/01 01:08:27;;;;;;;9.45;4.40;;;;;;;24.45;61.33;100782.00;5050129;28;20492;-69
2021/09/01 01:10:55;;;;;;;10.23;5.15;;;;;;;24.45;61.24;100788.28;5048012;28;20404;-69
2021/09/01 01:13:22;;;;;;;10.73;4.68;;;;;;;24.35;61.30;100786.03;5045452;28;20045;-69
2021/09/01 01:15:51;;;;;;;9.27;4.35;;;;;;;24.31;61.65;100778.97;5048655;28;20056;-69
2021/09/01 01:18:20;;;;;;;11.95;4.38;;;;;;;24.23;61.54;100784.69;5051394;28;20033;-69
2021/09/01 01:20:50;;;;;;;9.32;4.43;;;;;;;24.26;61.63;100783.69;5047548;28;20279;-69
2021/09/01 01:23:20;;;;;;;10.10;4.40;;;;;;;24.25;61.21;100787.31;5043634;28;20040;-69
2021/09/01 01:25:49;;;;;;;13.10;4.18;;;;;;;24.17;61.33;100779.50;5050892;28;20404;-69
2021/09/01 01:28:16;;;;;;;10.57;5.32;;;;;;;24.09;61.63;100782.50;5049408;28;20135;-69
2021/09/01 01:30:44;;;;;;;9.13;5.57;;;;;;;24.12;61.58;100778.81;5049826;28;20045;-70
2021/09/01 01:33:14;;;;;;;9.48;4.70;;;;;;;24.07;61.61;100784.41;5051358;28;20567;-69
2021/09/01 01:35:43;;;;;;;7.40;4.72;;;;;;;23.99;61.87;100789.22;5051355;28;20037;-70
2021/09/01 01:38:13;;;;;;;8.73;4.40;;;;;;;23.94;61.87;100779.53;5050538;28;20399;-69
2021/09/01 01:40:41;;;;;;;10.70;4.63;;;;;;;23.93;61.84;100784.06;5051492;28;20056;-70
2021/09/01 01:43:14;;;;;;;9.38;4.47;;;;;;;23.86;61.93;100778.97;5072750;28;20438;-70
2021/09/01 01:45:45;;;;;;;8.13;4.03;;;;;;;23.89;62.00;100795.03;5090492;28;20044;-69
2021/09/01 01:48:14;;;;;;;8.50;4.28;;;;;;;23.88;61.63;100795.97;5087268;27;20110;-69
2021/09/01 01:50:43;;;;;;;8.88;4.35;;;;;;;23.88;61.61;100793.28;5089454;28;20058;-69
2021/09/01 01:53:13;;;;;;;10.63;4.60;;;;;;;23.83;61.68;100799.69;5089994;28;20487;-70
2021/09/01 01:55:42;;;;;;;11.93;5.00;;;;;;;23.76;61.76;100795.47;5089669;28;20040;-70
2021/09/01 01:58:11;;;;;;;10.45;4.40;;;;;;;23.75;61.81;100793.75;5088739;28;20194;-69
2021/09/01 02:00:41;;;;;;;11.52;4.57;;;;;;;23.78;61.55;100796.31;5091329;28;20048;-69
2021/09/01 02:03:13;;;;;;;9.38;4.75;;;;;;;23.71;61.63;100792.09;5088318;28;20066;-69
2021/09/01 02:05:42;;;;;;;6.88;4.47;;;;;;;23.73;61.68;100792.03;5091167;28;20082;-69
2021/09/01 02:08:11;;;;;;;9.77;4.50;;;;;;;23.69;61.60;100793.97;5089374;28;20469;-69
2021/09/01 02:10:39;;;;;;;9.50;4.13;;;;;;;23.63;61.46;100794.19;5081960;28;20044;-70
2021/09/01 02:13:08;;;;;;;7.97;4.57;;;;;;;23.55;61.80;100788.22;5090526;28;20446;-69
2021/09/01 02:15:37;;;;;;;10.25;4.70;;;;;;;23.53;61.86;100792.78;5084493;28;20040;-69
2021/09/01 02:18:11;;;;;;;8.23;4.22;;;;;;;23.56;61.61;100798.06;5086594;28;20052;-69
2021/09/01 02:20:39;;;;;;;10.10;4.63;;;;;;;23.45;61.68;100794.84;5082355;28;20037;-69
2021/09/01 02:23:08;;;;;;;7.85;4.07;;;;;;;23.39;61.95;100790.56;5090637;28;20052;-69
2021/09/01 02:25:35;;;;;;;10.32;4.45;;;;;;;23.36;61.81;100792.50;5087414;28;20092;-69
2021/09/01 02:28:03;;;;;;;7.85;4.38;;;;;;;23.39;61.64;100803.16;5091220;28;20047;-70
2021/09/01 02:30:49;;;;;;;8.65;4.35;;;;;;;23.34;61.56;100799.75;5074052;28;20142;-70
2021/09/01 02:33:18;;;;;;;10.48;4.60;;;;;;;23.18;62.03;100801.22;5089750;28;20066;-70
2021/09/01 02:35:49;;;;;;;11.73;4.65;;;;;;;23.22;61.85;100805.59;5089412;28;20546;-70
2021/09/01 02:38:19;;;;;;;10.15;5.22;;;;;;;23.29;61.51;100808.03;5079578;28;20044;-70
2021/09/01 02:40:49;;;;;;;8.10;4.30;;;;;;;23.36;61.13;100800.59;5087425;28;20514;-70
2021/09/01 02:43:17;;;;;;;8.63;4.30;;;;;;;23.37;61.01;100802.31;5070404;28;20502;-70
2021/09/01 02:45:47;;;;;;;8.00;4.45;;;;;;;23.31;60.85;100803.44;5060480;28;20446;-69
2021/09/01 02:48:16;;;;;;;9.82;4.50;;;;;;;23.14;61.22;100811.25;5060479;28;20492;-69
2021/09/01 02:50:46;;;;;;;9.45;4.07;;;;;;;23.12;61.18;100806.84;5065798;28;20381;-70
2021/09/01 02:53:14;;;;;;;9.45;4.00;;;;;;;23.03;61.05;100814.34;5068562;28;20565;-69
2021/09/01 02:55:42;;;;;;;9.00;4.30;;;;;;;23.01;60.94;100813.50;5065155;28;20067;-70
2021/09/01 02:58:09;;;;;;;12.68;4.72;;;;;;;22.98;60.91;100805.50;5066411;28;20052;-70
2021/09/01 03:00:39;;;;;;;8.18;4.70;;;;;;;22.84;61.15;100806.94;5069665;28;20068;-69
2021/09/01 03:03:10;;;;;;;7.97;4.63;;;;;;;22.87;60.84;100813.09;5065164;28;20037;-70
2021/09/01 03:05:40;;;;;;;7.22;4.18;;;;;;;22.90;60.79;100809.41;5068908;28;20044;-70
2021/09/01 03:08:10;;;;;;;5.70;4.05;;;;;;;22.92;60.59;100810.22;5070079;28;20043;-69
2021/09/01 03:10:39;;;;;;;10.27;4.18;;;;;;;22.96;60.39;100817.28;5066848;28;20315;-68
2021/09/01 03:13:06;;;;;;;11.52;4.07;;;;;;;22.98;60.14;100818.97;5054664;28;20040;-69
2021/09/01 03:15:34;;;;;;;11.25;4.35;;;;;;;22.97;60.03;100817.22;5068379;28;20044;-68
2021/09/01 03:18:06;;;;;;;6.20;3.67;;;;;;;22.99;59.87;100814.47;5063535;28;20521;-70
2021/09/01 03:20:34;;;;;;;9.30;4.40;;;;;;;23.00;59.81;100814.41;5069331;28;20453;-70
2021/09/01 03:23:02;;;;;;;7.75;4.00;;;;;;;22.86;59.97;100815.81;5067368;28;20037;-68
2021/09/01 03:25:34;;;;;;;10.52;4.13;;;;;;;22.80;60.14;100813.34;5061748;28;20076;-68
2021/09/01 03:28:03;;;;;;;7.65;4.03;;;;;;;22.83;60.02;100819.53;5068266;28;20041;-69
2021/09/01 03:30:35;;;;;;;8.48;3.90;;;;;;;22.82;59.93;100811.47;5062140;28;20072;-69
2021/09/01 03:33:07;;;;;;;5.50;3.42;;;;;;;22.77;60.03;100819.72;5071790;28;20036;-70
2021/09/01 03:35:35;;;;;;;5.90;3.70;;;;;;;22.74;60.25;100822.50;5065069;28;20051;-70
2021/09/01 03:38:02;;;;;;;6.05;3.65;;;;;;;22.72;60.24;100816.25;5076415;28;20100;-67
2021/09/01 03:40:29;;;;;;;8.35;3.97;;;;;;;22.68;60.51;100820.00;5063685;28;20043;-70
2021/09/01 03:43:01;;;;;;;9.82;4.20;;;;;;;22.68;60.39;100822.69;5069278;28;20094;-70
2021/09/01 03:45:29;;;;;;;7.50;4.03;;;;;;;22.74;60.30;100814.44;5052938;28;20440;-70
2021/09/01 03:47:56;;;;;;;12.70;4.40;;;;;;;22.76;60.04;100819.78;5052351;28;20412;-70
2021/09/01 03:50:23;;;;;;;7.13;3.55;;;;;;;22.77;59.85;100829.63;5050567;28;20047;-70
2021/09/01 03:52:52;;;;;;;10.75;4.50;;;;;;;22.72;59.88;100829.72;5050828;28;20491;-70
2021/09/01 03:55:19;;;;;;;7.45;3.70;;;;;;;22.78;59.53;100824.16;5050126;28;20051;-70
2021/09/01 03:57:48;;;;;;;7.53;3.67;;;;;;;22.81;59.20;100820.50;5051196;28;20042;-70
2021/09/01 04:00:17;;;;;;;8.45;4.00;;;;;;;22.84;59.20;100823.09;5047631;28;20463;-70
2021/09/01 04:02:45;;;;;;;8.25;3.70;;;;;;;22.88;59.18;100825.63;5052280;28;20364;-70
2021/09/01 04:05:13;;;;;;;8.93;3.67;;;;;;;22.95;59.16;100832.56;5048390;28;20040;-70
2021/09/01 04:07:42;;;;;;;7.88;4.13;;;;;;;23.03;58.95;100833.19;5041403;28;20077;-70
2021/09/01 04:10:11;;;;;;;6.78;3.67;;;;;;;23.15;58.93;100815.72;5047357;28;20045;-70
2021/09/01 04:12:38;;;;;;;7.45;3.60;;;;;;;23.27;58.73;100817.97;5057068;28;20036;-70
2021/09/01 04:15:07;;;;;;;10.52;3.45;;;;;;;23.36;58.40;100814.06;5056262;28;20040;-69
2021/09/01 04:17:36;;;;;;;7.03;3.17;;;;;;;23.28;58.32;100816.16;5060549;28;20426;-69
2021/09/01 04:20:04;;;;;;;10.30;3.20;;;;;;;23.42;58.21;100817.41;5075384;28;20044;-69
2021/09/01 04:22:35;;;;;;;6.72;3.58;;;;;;;23.61;57.96;100822.16;5066760;28;20094;-69
2021/09/01 04:25:05;;;;;;;5.43;2.70;;;;;;;23.75;58.09;100812.63;5060913;28;20067;-70
2021/09/01 04:27:34;;;;;;;6.78;3.70;;;;;;;23.88;58.01;100814.84;5044972;28;20048;-69
2021/09/01 04:30:01;;;;;;;15.23;3.30;;;;;;;23.97;57.88;100814.47;5063037;28;20050;-70
2021/09/01 04:32:49;;;;;;;7.70;3.47;;;;;;;24.09;57.28;100809.47;5054363;28;20048;-71
2021/09/01 04:35:16;;;;;;;9.38;3.10;;;;;;;24.27;57.17;100815.13;5054663;28;20039;-70
2021/09/01 04:37:45;;;;;;;8.77;3.08;;;;;;;24.43;56.70;100816.25;5069026;28;20037;-70
2021/09/01 04:40:15;;;;;;;7.50;3.28;;;;;;;24.61;56.52;100818.22;5057066;28;20134;-70
2021/09/01 04:42:44;;;;;;;6.28;2.55;;;;;;;24.78;56.23;100818.38;5053536;28;20048;-70
2021/09/01 04:45:30;;;;;;;6.60;3.05;;;;;;;24.99;55.75;100816.63;5044970;28;20103;-70
2021/09/01 04:47:59;;;;;;;4.55;2.53;;;;;;;25.18;55.72;100823.00;5045819;28;20746;-70
2021/09/01 04:50:27;;;;;;;6.55;2.88;;;;;;;25.34;55.30;100818.66;5051123;28;20045;-70
2021/09/01 04:52:54;;;;;;;6.65;2.75;;;;;;;25.56;54.93;100826.69;5048897;28;20044;-71
2021/09/01 04:55:22;;;;;;;5.85;2.97;;;;;;;25.74;54.80;100825.00;5050130;28;20407;-70
2021/09/01 04:57:53;;;;;;;8.30;2.45;;;;;;;25.93;54.94;100825.06;5051759;28;20792;-70
2021/09/01 05:00:20;;;;;;;6.03;3.03;;;;;;;26.10;54.66;100823.28;5051693;28;20036;-70
2021/09/01 05:02:47;;;;;;;4.38;2.33;;;;;;;26.26;54.15;100827.97;5051750;28;20396;-70
2021/09/01 05:05:16;;;;;;;8.32;2.35;;;;;;;26.47;53.71;100829.66;5045401;28;20036;-70
2021/09/01 05:07:46;;;;;;;7.80;2.60;;;;;;;26.63;53.45;100825.25;5058894;28;20079;-70
2021/09/01 05:10:14;;;;;;;9.40;2.75;;;;;;;26.83;52.82;100830.56;5051541;28;20052;-70
2021/09/01 05:12:42;;;;;;;7.00;2.47;;;;;;;26.99;52.30;100827.94;5051839;28;20067;-70
2021/09/01 05:15:11;;;;;;;6.82;2.72;;;;;;;27.20;51.54;100820.53;5046160;28;20037;-70
2021/09/01 05:17:38;;;;;;;16.85;3.10;;;;;;;27.37;50.78;100818.69;5051799;28;20045;-70
2021/09/01 05:20:07;;;;;;;7.03;2.92;;;;;;;27.61;50.08;100819.25;5051271;28;20033;-69
2021/09/01 05:22:37;;;;;;;6.70;2.38;;;;;;;27.84;49.38;100812.56;5056725;28;20048;-69
2021/09/01 05:25:06;;;;;;;8.02;2.25;;;;;;;28.14;48.61;100816.34;5053629;28;20041;-69
2021/09/01 05:27:36;;;;;;;8.85;2.25;;;;;;;28.40;48.62;100817.56;5050747;28;20511;-68
2021/09/01 05:30:05;;;;;;;5.35;1.95;;;;;;;28.63;48.23;100818.06;5050474;28;20033;-70
2021/09/01 05:32:33;;;;;;;3.97;1.98;;;;;;;28.83;47.50;100815.09;5051631;28;20137;-68
2021/09/01 05:35:02;;;;;;;6.82;2.03;;;;;;;29.02;46.67;100817.56;5046826;28;20121;-69
2021/09/01 05:37:29;;;;;;;7.15;2.03;;;;;;;29.20;46.51;100809.22;5049049;28;20048;-70
2021/09/01 05:40:01;;;;;;;4.97;1.80;;;;;;;29.40;45.82;100807.13;5051072;28;20037;-69
2021/09/01 05:42:30;;;;;;;7.38;2.05;;;;;;;29.54;45.60;100807.13;5050609;28;20037;-69
2021/09/01 05:44:59;;;;;;;6.15;1.63;;;;;;;29.66;45.29;100811.84;5050167;28;20044;-69
2021/09/01 05:47:27;;;;;;;8.63;2.20;;;;;;;29.83;45.08;100806.19;5047032;28;20044;-69
2021/09/01 05:49:56;;;;;;;4.00;1.63;;;;;;;29.96;44.57;100799.00;5050521;28;20056;-70
2021/09/01 05:52:25;;;;;;;5.53;1.73;;;;;;;30.14;44.14;100815.13;5050029;28;20742;-70
2021/09/01 05:54:55;;;;;;;10.35;2.10;;;;;;;30.27;43.72;100805.19;5051206;28;20040;-69
2021/09/01 05:57:33;;;;;;;5.88;1.75;;;;;;;30.51;42.73;100800.00;5066504;28;20046;-71
2021/09/01 06:00:09;;;;;;;6.50;2.45;;;;;;;30.60;42.57;100810.28;5070790;28;20040;-69
2021/09/01 06:02:41;;;;;;;7.32;2.20;;;;;;;30.68;42.23;100806.06;5069325;28;20072;-69
2021/09/01 06:05:11;;;;;;;;;;;;;;;30.74;42.11;100807.50;5067278;28;20037;-70
2021/09/01 06:07:45;;;;;;;7.35;2.05;;;;;;;30.98;41.43;100804.97;5069803;28;19936;-69
2021/09/01 06:10:21;;;;;;;5.35;1.88;;;;;;;31.06;40.49;100791.69;5065662;28;20036;-69
2021/09/01 06:12:54;;;;;;;5.55;1.90;;;;;;;31.15;39.99;100789.22;5070026;28;20059;-70
2021/09/01 06:15:22;;;;;;;9.25;2.35;;;;;;;31.35;39.82;100795.13;5066441;28;20066;-69
2021/09/01 06:17:50;;;;;;;10.20;2.10;;;;;;;31.49;39.59;100797.75;5065122;28;20044;-68
2021/09/01 06:20:18;;;;;;;8.07;2.15;;;;;;;31.62;39.66;100799.56;5068651;28;20052;-69
2021/09/01 06:22:46;;;;;;;7.68;1.98;;;;;;;31.86;38.91;100799.63;5065208;28;20040;-68
2021/09/01 06:25:14;;;;;;;6.82;2.00;;;;;;;32.01;38.85;100793.06;5069558;28;20395;-69
2021/09/01 06:27:43;;;;;;;5.38;1.95;;;;;;;32.25;38.10;100794.97;5064050;28;20123;-68
2021/09/01 06:30:14;;;;;;;7.13;2.00;;;;;;;32.35;37.77;100787.88;5070259;28;20475;-68
2021/09/01 06:32:42;;;;;;;8.73;2.35;;;;;;;32.44;37.34;100807.16;5068927;28;20048;-68
2021/09/01 06:35:12;;;;;;;6.97;2.00;;;;;;;32.59;37.06;100799.69;5068574;28;20123;-68
2021/09/01 06:37:42;;;;;;;5.60;2.42;;;;;;;32.66;37.03;100800.97;5066060;28;20127;-69
2021/09/01 06:40:11;;;;;;;7.30;2.00;;;;;;;32.66;36.20;100809.16;5066996;28;20048;-69
2021/09/01 06:42:39;;;;;;;5.93;2.05;;;;;;;32.76;36.75;100799.28;5069927;28;20129;-69
2021/09/01 06:45:07;;;;;;;6.63;1.90;;;;;;;32.97;36.78;100807.72;5069973;28;20096;-69
2021/09/01 06:47:43;;;;;;;9.15;2.33;;;;;;;33.11;36.18;100810.25;5070689;28;20040;-68
2021/09/01 06:50:17;;;;;;;6.60;2.40;;;;;;;33.23;36.28;100808.47;5070440;28;20048;-68
2021/09/01 06:52:46;;;;;;;5.20;2.00;;;;;;;33.30;36.06;100808.84;5069899;28;20051;-69
2021/09/01 06:55:14;;;;;;;6.43;2.30;;;;;;;33.37;36.20;100815.59;5070536;28;20150;-69
2021/09/01 06:57:42;;;;;;;9.13;2.75;;;;;;;33.55;36.09;100820.47;5070420;28;20513;-69
2021/09/01 07:00:12;;;;;;;4.38;2.13;;;;;;;33.73;35.76;100812.72;5065435;28;20519;-68
2021/09/01 07:02:39;;;;;;;7.13;2.30;;;;;;;33.75;35.60;100810.69;5061895;28;20045;-68
2021/09/01 07:05:11;;;;;;;6.47;2.80;;;;;;;33.80;35.48;100808.50;5072804;28;20044;-69
2021/09/01 07:07:39;;;;;;;9.50;2.20;;;;;;;33.76;35.31;100806.09;5087631;28;20085;-69
2021/09/01 07:10:07;;;;;;;11.65;2.35;;;;;;;33.84;34.87;100818.19;5088060;28;20035;-68
2021/09/01 07:12:34;;;;;;;5.47;2.58;;;;;;;33.99;35.14;100816.97;5088106;28;20040;-68
2021/09/01 07:15:05;;;;;;;8.13;2.30;;;;;;;34.21;34.65;100823.41;5093161;28;20491;-68
2021/09/01 07:17:32;;;;;;;8.80;2.72;;;;;;;34.36;34.24;100819.44;5094543;28;20052;-68
2021/09/01 07:20:00;;;;;;;9.48;2.47;;;;;;;34.46;34.03;100836.88;5094273;28;20051;-68
2021/09/01 07:22:29;;;;;;;7.88;2.75;;;;;;;34.42;33.51;100829.91;5093871;28;20036;-68
2021/09/01 07:24:56;;;;;;;7.10;2.65;;;;;;;34.44;33.56;100835.25;5094134;28;20032;-69
2021/09/01 07:27:23;;;;;;;7.45;2.40;;;;;;;34.55;33.39;100838.84;5093636;28;20250;-69
2021/09/01 07:29:51;;;;;;;4.72;2.70;;;;;;;34.63;33.42;100839.09;5087633;27;20036;-69
2021/09/01 07:32:19;;;;;;;6.20;2.30;;;;;;;34.81;32.99;100841.28;5094099;27;20036;-68
2021/09/01 07:34:46;;;;;;;6.70;2.22;;;;;;;34.70;33.22;100839.44;5091482;28;20040;-69
2021/09/01 07:37:15;;;;;;;7.35;2.65;;;;;;;34.84;33.27;100838.31;5093805;28;20043;-68
2021/09/01 07:39:44;;;;;;;5.43;2.40;;;;;;;34.96;33.04;100845.50;5093746;28;20044;-68
2021/09/01 07:42:12;;;;;;;5.70;2.30;;;;;;;34.95;33.13;100846.50;5093253;28;20040;-69
2021/09/01 07:44:39;;;;;;;6.75;2.78;;;;;;;35.06;32.97;100850.06;5091980;28;20048;-69
2021/09/01 07:47:07;;;;;;;7.68;2.13;;;;;;;35.12;32.86;100855.03;5093375;28;20078;-68
2021/09/01 07:49:39;;;;;;;7.03;2.40;;;;;;;35.12;32.63;100856.88;5093464;28;20123;-68
2021/09/01 07:52:06;;;;;;;9.75;3.28;;;;;;;35.20;32.60;100859.84;5093562;28;20128;-68
2021/09/01 07:54:35;;;;;;;7.53;2.25;;;;;;;35.38;32.46;100858.28;5091254;28;20499;-67
2021/09/01 07:57:05;;;;;;;5.95;2.45;;;;;;;35.59;32.35;100866.53;5092492;28;20039;-67
2021/09/01 07:59:32;;;;;;;7.15;2.63;;;;;;;35.72;32.33;100869.13;5093951;28;20039;-69
2021/09/01 08:02:00;;;;;;;6.68;2.40;;;;;;;35.91;32.18;100864.59;5093522;28;20048;-69
2021/09/01 08:04:27;;;;;;;7.97;2.75;;;;;;;36.09;31.63;100880.50;5092770;28;20063;-69
2021/09/01 08:06:56;;;;;;;5.43;2.40;;;;;;;35.89;31.61;100866.66;5092667;28;20123;-70
2021/09/01 08:09:23;;;;;;;5.88;2.55;;;;;;;35.93;31.21;100867.22;5093074;28;20044;-69
2021/09/01 08:11:51;;;;;;;8.48;2.38;;;;;;;35.78;31.25;100868.56;5079021;28;20805;-69
2021/09/01 08:14:20;;;;;;;4.97;1.95;;;;;;;35.86;30.71;100872.41;5062621;28;20037;-69
2021/09/01 08:16:48;;;;;;;6.30;2.40;;;;;;;35.73;30.82;100871.75;5069471;28;20049;-69
2021/09/01 08:19:15;;;;;;;6.80;2.38;;;;;;;35.86;30.60;100868.78;5068475;28;20048;-69
2021/09/01 08:21:42;;;;;;;5.40;2.67;;;;;;;35.84;30.56;100871.66;5072611;28;20045;-68
2021/09/01 08:24:10;;;;;;;6.35;2.40;;;;;;;35.74;30.93;100864.38;5071612;28;20442;-68
2021/09/01 08:26:37;;;;;;;5.43;2.28;;;;;;;35.85;31.50;100861.53;5062470;28;20102;-68
2021/09/01 08:29:07;;;;;;;7.10;2.40;;;;;;;35.94;31.12;100863.47;5070046;28;20135;-67
2021/09/01 08:31:39;;;;;;;6.03;2.75;;;;;;;35.97;31.43;100846.72;5068026;28;20040;-67
2021/09/01 08:34:06;;;;;;;6.50;2.35;;;;;;;36.06;31.60;100861.50;5071311;28;20029;-68
2021/09/01 08:36:34;;;;;;;7.88;2.40;;;;;;;36.11;31.67;100854.56;5070533;28;20596;-69
2021/09/01 08:39:01;;;;;;;8.07;2.20;;;;;;;36.05;31.51;100866.13;5069906;28;20107;-68
2021/09/01 08:41:29;;;;;;;6.47;2.30;;;;;;;36.04;31.77;100855.28;5071700;28;20036;-69
2021/09/01 08:44:01;;;;;;;6.20;2.25;;;;;;;36.12;31.90;100848.06;5064302;28;20404;-68
2021/09/01 08:46:31;;;;;;;9.07;2.58;;;;;;;36.22;31.86;100853.66;5071768;28;20036;-69
2021/09/01 08:49:01;;;;;;;6.95;2.72;;;;;;;36.22;31.90;100850.91;5071641;28;20052;-68
2021/09/01 08:51:31;;;;;;;6.90;2.53;;;;;;;36.03;31.79;100850.78;5071159;28;20043;-68
2021/09/01 08:54:00;;;;;;;7.05;2.95;;;;;;;36.10;31.57;100852.84;5070425;28;20044;-69
2021/09/01 08:56:30;;;;;;;7.18;2.78;;;;;;;35.84;31.28;100848.81;5064927;28;20040;-68
2021/09/01 08:58:57;;;;;;;9.40;2.58;;;;;;;35.79;31.78;100854.72;5069832;28;20112;-68
2021/09/01 09:01:42;;;;;;;10.20;3.25;;;;;;;35.79;31.80;100842.84;5068841;28;20045;-69
2021/09/01 09:04:17;;;;;;;6.32;3.03;;;;;;;35.80;31.17;100850.09;5066179;28;20045;-68
2021/09/01 09:06:46;;;;;;;4.25;2.33;;;;;;;35.86;31.07;100847.66;5070384;28;20037;-68
2021/09/01 09:09:16;;;;;;;7.68;3.00;;;;;;;35.88;30.81;100842.03;5071676;28;20403;-68
2021/09/01 09:11:44;;;;;;;7.18;3.00;;;;;;;36.00;31.15;100840.94;5068987;28;20040;-69
2021/09/01 09:14:18;;;;;;;6.70;2.33;;;;;;;36.22;31.03;100848.16;5070671;28;20063;-69
2021/09/01 09:16:46;;;;;;;8.03;2.50;;;;;;;36.17;30.92;100850.47;5070903;28;20047;-67
2021/09/01 09:19:15;;;;;;;8.88;3.30;;;;;;;36.02;31.06;100849.03;5071105;28;20068;-67
2021/09/01 09:21:43;;;;;;;6.47;2.30;;;;;;;35.81;31.11;100838.97;5071036;28;20080;-68
2021/09/01 09:24:21;;;;;;;9.25;2.67;;;;;;;35.78;30.94;100843.84;5069274;28;20047;-67
2021/09/01 09:26:50;;;;;;;5.22;2.55;;;;;;;35.54;30.93;100841.34;5062008;28;20047;-68
2021/09/01 09:29:20;;;;;;;6.40;2.60;;;;;;;35.52;31.13;100840.63;5069495;28;20040;-68
2021/09/01 09:32:00;;;;;;;4.70;3.00;;;;;;;35.58;31.20;100844.72;5069115;28;20553;-68
2021/09/01 09:34:36;;;;;;;5.75;2.25;;;;;;;35.49;30.64;100844.53;5070799;28;20040;-68
2021/09/01 09:37:06;;;;;;;4.15;2.58;;;;;;;35.47;30.63;100832.78;5070543;28;20044;-68
2021/09/01 09:39:41;;;;;;;5.68;2.45;;;;;;;35.57;30.37;100832.88;5069970;28;20044;-68
2021/09/01 09:42:11;;;;;;;5.82;2.40;;;;;;;35.54;30.50;100834.00;5070545;28;20518;-67
2021/09/01 09:44:39;;;;;;;7.40;2.70;;;;;;;35.52;30.74;100832.38;5070532;28;20047;-68
2021/09/01 09:47:06;;;;;;;11.02;2.72;;;;;;;35.56;30.60;100831.13;5070034;28;20040;-67
2021/09/01 09:49:36;;;;;;;5.85;2.25;;;;;;;35.48;30.38;100820.78;5067906;28;20041;-68
2021/09/01 09:52:15;;;;;;;5.43;2.30;;;;;;;35.47;30.58;100830.03;5070074;28;20044;-67
2021/09/01 09:54:43;;;;;;;8.73;3.40;;;;;;;35.49;30.28;100822.53;5065614;28;20060;-68
2021/09/01 09:57:12;;;;;;;8.27;2.67;;;;;;;35.47;30.28;100826.41;5070494;28;20498;-68
2021/09/01 09:59:40;;;;;;;8.43;2.47;;;;;;;35.41;30.77;100819.59;5070479;28;20044;-68
2021/09/01 10:02:07;;;;;;;7.75;2.88;;;;;;;35.40;30.79;100839.81;5070095;28;20052;-67
2021/09/01 10:04:38;;;;;;;5.30;2.83;;;;;;;35.41;31.01;100843.44;5071044;28;20059;-68
2021/09/01 10:07:06;;;;;;;6.28;2.85;;;;;;;35.26;30.63;100823.66;5070071;28;20051;-67
2021/09/01 10:09:38;;;;;;;7.43;2.78;;;;;;;35.30;30.49;100835.28;5070503;28;20045;-69
2021/09/01 10:12:07;;;;;;;7.40;2.70;;;;;;;35.28;30.42;100831.78;5070829;28;20037;-67
2021/09/01 10:14:35;;;;;;;5.45;3.10;;;;;;;35.16;29.85;100831.81;5064940;28;20123;-68
2021/09/01 10:17:08;;;;;;;5.72;2.65;;;;;;;35.13;29.72;100823.81;5063525;28;20048;-68
2021/09/01 10:19:39;;;;;;;5.15;2.70;;;;;;;35.08;30.24;100825.22;5070046;28;20048;-67
2021/09/01 10:22:11;;;;;;;6.88;2.47;;;;;;;35.21;29.94;100827.81;5059306;28;20041;-68
2021/09/01 10:24:44;;;;;;;7.85;2.90;;;;;;;35.28;29.57;100831.78;5069038;28;20138;-68
2021/09/01 10:27:14;;;;;;;6.65;2.95;;;;;;;35.24;29.50;100833.06;5069387;28;20036;-68
2021/09/01 10:29:50;;;;;;;6.15;2.83;;;;;;;35.23;29.44;100817.59;5058452;28;20127;-67
2021/09/01 10:32:20;;;;;;;12.65;3.08;;;;;;;35.24;29.93;100820.19;5069820;28;20043;-68
2021/09/01 10:34:50;;;;;;;6.55;2.65;;;;;;;35.27;30.19;100811.69;5070310;28;20052;-68
2021/09/01 10:37:40;;;;;;;7.53;3.40;;;;;;;35.21;30.18;100817.72;5069547;28;20047;-69
2021/09/01 10:40:13;;;;;;;8.15;3.28;;;;;;;35.11;30.23;100820.38;5068026;28;20045;-67
2021/09/01 10:42:43;;;;;;;6.38;2.88;;;;;;;35.15;30.41;100818.22;5067395;28;20547;-68
2021/09/01 10:45:16;;;;;;;7.90;2.65;;;;;;;35.08;30.51;100814.25;5068006;28;20041;-68
2021/09/01 10:48:07;;;;;;;6.57;3.40;;;;;;;35.23;30.43;100806.59;5068605;28;20041;-69
2021/09/01 10:50:38;;;;;;;6.07;2.75;;;;;;;35.27;30.19;100817.16;5073704;28;20045;-69
2021/09/01 10:53:15;;;;;;;6.63;2.95;;;;;;;35.33;30.70;100808.41;5074435;28;20037;-69
2021/09/01 10:55:55;;;;;;;6.40;2.83;;;;;;;35.46;30.93;100816.44;5073005;28;20416;-69
2021/09/01 10:58:32;;;;;;;5.70;2.88;;;;;;;35.61;30.99;100816.97;5073892;28;20047;-69
2021/09/01 11:01:06;;;;;;;6.72;2.78;;;;;;;35.79;31.16;100818.09;5072105;28;20040;-69
2021/09/01 11:03:36;;;;;;;6.88;2.70;;;;;;;35.86;30.66;100816.56;5073158;28;20057;-68
2021/09/01 11:06:22;;;;;;;7.40;2.53;;;;;;;35.95;30.66;100823.97;5073719;28;20519;-69
2021/09/01 11:09:08;;;;;;;8.10;3.60;;;;;;;36.08;30.61;100824.63;5073066;28;20047;-69
2021/09/01 11:11:51;;;;;;;5.55;3.13;;;;;;;36.19;30.28;100818.16;5073702;28;20548;-69
2021/09/01 11:14:37;;;;;;;4.63;2.58;;;;;;;36.37;30.30;100818.34;5073654;28;20035;-68
2021/09/01 11:17:09;;;;;;;5.72;3.05;;;;;;;36.51;29.73;100818.84;5073072;28;20036;-68
2021/09/01 11:19:38;;;;;;;8.70;3.20;;;;;;;36.45;30.08;100819.41;5068381;28;20423;-67
2021/09/01 11:22:11;;;;;;;5.43;2.92;;;;;;;36.51;30.30;100823.47;5070912;28;20460;-67
2021/09/01 11:24:50;;;;;;;7.15;3.38;;;;;;;36.81;29.63;100819.78;5073604;28;20500;-69
2021/09/01 11:27:19;;;;;;;8.25;2.85;;;;;;;36.93;29.66;100827.78;5065840;28;20050;-69
2021/09/01 11:29:47;;;;;;;8.38;3.83;;;;;;;37.06;29.35;100819.22;5073735;28;20040;-69
2021/09/01 11:32:16;;;;;;;7.03;3.05;;;;;;;37.16;29.11;100822.00;5073722;28;20041;-69
2021/09/01 11:34:43;;;;;;;8.90;3.00;;;;;;;37.25;29.06;100822.00;5073428;28;20052;-69
2021/09/01 11:37:14;;;;;;;4.97;3.05;;;;;;;37.39;28.89;100809.66;5073289;28;20041;-69